• Join FlightAware (Why Join?)
  • Login
  • US Flag 
04:56AM EDT


 

Airport Tracker/Info


-or-


 

Live Flight TrackerFlight Track Log ✈ FLG4135 ✈ 24-Jun-2013 ✈ KDTW - KMDT

Flight Track Log - Related Links

Times and Time Zones

All times are in EDT time to prevent confusion due to time zone crossing. See the FLG4135 flight status page for this flight to view local times or setup timezone preferences in your user account.

Time Position Orientation Groundspeed Altitude Reporting Facility
EDT Latitude Longitude Course Direction KTS MPH feet Rate Location/Type
02:22PM 42.1994 -83.3581 90° East 156 180 1,300  Level Cleveland Center
02:23PM 42.1392 -83.3497 174° South 197 227 4,100 2,340 Climbing Cleveland Center
02:24PM 42.0944 -83.3031 142° Southeast 244 281 6,600 2,220 Climbing Cleveland Center
02:25PM 42.2167 -82.7628 90° East  Level FlightAware Approximate
02:25PM 42.0819 -83.2158 101° East 266 306 8,700  Level Cleveland Center
02:26PM 42.2167 -82.6150 90° East  Level FlightAware Approximate
02:26PM 42.0986 -83.1242 76° East 318 366 9,900  Level Cleveland Center
02:27PM 42.2167 -82.4673 90° East  Level FlightAware Approximate
02:27PM 42.1219 -83.0019 76° East 339 390 10,700  Level Cleveland Center
02:28PM 42.1456 -82.8711 76° East 351 404 12,300 1,500 Climbing Cleveland Center
02:29PM 42.1692 -82.7347 77° East 356 410 13,700 1,500 Climbing Cleveland Center
02:30PM 42.1925 -82.5953 77° East 368 423 15,400 1,500 Climbing Cleveland Center
02:31PM 42.1864 -82.4522 93° East 373 429 16,700 1,140 Climbing Cleveland Center
02:32PM 42.1489 -82.3222 111° Southeast 373 429 17,700 900 Climbing Cleveland Center
02:33PM 42.0944 -82.1950 120° Southeast 373 429 18,600 960 Climbing Cleveland Center
02:34PM 42.0339 -82.0508 119° Southeast 397 457 19,700 900 Climbing Cleveland Center
02:35PM 41.9772 -81.9211 120° Southeast 404 465 20,400 660 Climbing Cleveland Center
02:36PM 41.9183 -81.7858 120° Southeast 415 478 21,100 600 Climbing Cleveland Center
02:37PM 41.8672 -81.6678 120° Southeast 410 472 21,700 600 Climbing Cleveland Center
02:38PM 41.8103 -81.5275 119° Southeast 410 472 22,400 660 Climbing Cleveland Center
02:39PM 41.7486 -81.3931 122° Southeast 421 484 23,100 720 Climbing Cleveland Center
02:40PM 41.6892 -81.2561 120° Southeast 421 484 23,900 600 Climbing Cleveland Center
02:41PM 41.6231 -81.1025 120° Southeast 426 490 24,300 360 Climbing Cleveland Center
02:42PM 41.5611 -80.9633 121° Southeast 426 490 24,700 360 Climbing Cleveland Center
02:43PM 41.4992 -80.8244 121° Southeast 432 497 25,100 420 Climbing Cleveland Center
02:44PM 41.4367 -80.6800 120° Southeast 437 503 25,600 480 Climbing Cleveland Center
02:45PM 41.3742 -80.5417 121° Southeast 442 509 26,100 480 Climbing Cleveland Center
02:46PM 41.3117 -80.4006 120° Southeast 449 517 26,600 480 Climbing Cleveland Center
02:47PM 41.2508 -80.2600 120° Southeast 449 517 27,100 180 Climbing Cleveland Center
02:48PM 41.1836 -80.1169 122° Southeast 449 517 27,000 -360 Descending Cleveland Center
02:49PM 41.1183 -79.9711 121° Southeast 449 517 26,400 -600 Descending Cleveland Center
02:50PM 41.0528 -79.8258 121° Southeast 454 522 25,900 -660 Descending Cleveland Center
02:51PM 40.9872 -79.6864 122° Southeast 454 522 25,100 -960 Descending Cleveland Center
02:52PM 40.9214 -79.5472 122° Southeast 449 517 24,000 -1,620 Descending Cleveland Center
02:53PM 40.8681 -79.4272 120° Southeast 444 511 21,900 -1,500 Descending Cleveland Center
02:54PM 40.8083 -79.2992 122° Southeast 429 494 21,000 -480 Descending Cleveland Center
02:55PM 40.7506 -79.1825 123° Southeast 402 463 21,000  Level Cleveland Center
02:56PM 40.6969 -79.0631 121° Southeast 383 441 21,000  Level Cleveland Center
02:57PM 40.6433 -78.9467 121° Southeast 377 434 21,000  Level Cleveland Center
02:58PM 40.5833 -78.8306 124° Southeast 377 434 21,000 -660 Level Cleveland Center
02:59PM 40.5208 -78.7067 124° Southeast 389 448 19,700 -1,320 Descending Cleveland Center
03:00PM 40.4625 -78.5883 123° Southeast 389 448 18,400 -1,200 Descending Cleveland Center
03:01PM 40.4142 -78.4561 116° Southeast 389 448 17,400 -1,200 Descending Cleveland Center
03:02PM 40.3742 -78.3236 112° Southeast 389 448 16,100 -1,380 Descending Cleveland Center
03:04PM 40.2944 -78.0675 112° Southeast 384 442 13,500 -1,380 Descending New York Center
03:05PM 40.2606 -77.9386 109° East 384 442 12,100 -1,380 Descending New York Center
03:06PM 40.2558 -77.8131 93° East 351 404 10,800 -1,320 Descending New York Center
03:07PM 40.2583 -77.6989 88° East 342 394 9,600 -900 Descending New York Center
03:08PM 40.2553 -77.6061 92° East 306 352 9,000 -660 Descending New York Center
03:10PM 40.2569 -77.3942 89° East 287 330 7,700 -720 Descending New York Center
03:11PM 40.2489 -77.2792 95° East 293 337 7,000 -600 Descending New York Center
03:12PM 40.2392 -77.1883 98° East 293 337 6,600 -720 Descending New York Center
03:13PM 40.2136 -77.0828 108° East 282 325 5,600 -840 Descending New York Center
03:14PM 40.1886 -77.0044 113° Southeast 267 307 5,000 -660 Descending New York Center
03:15PM 40.1642 -76.9125 109° East 248 285 4,300 -720 Descending New York Center